sensor_id;sensor_type;location;lat;lon;timestamp;P1;durP1;ratioP1;P2;durP2;ratioP2
46651;SDS011;32377;52.182;5.398;2023-04-03T00:00:10;4.57;;;1.43;;
46651;SDS011;32377;52.182;5.398;2023-04-03T00:02:36;4.23;;;1.63;;
46651;SDS011;32377;52.182;5.398;2023-04-03T00:05:01;3.20;;;1.50;;
46651;SDS011;32377;52.182;5.398;2023-04-03T00:07:27;7.63;;;2.17;;
46651;SDS011;32377;52.182;5.398;2023-04-03T00:09:52;3.20;;;1.50;;
46651;SDS011;32377;52.182;5.398;2023-04-03T00:12:18;2.33;;;1.33;;
46651;SDS011;32377;52.182;5.398;2023-04-03T00:14:44;5.27;;;1.60;;
46651;SDS011;32377;52.182;5.398;2023-04-03T00:17:09;4.97;;;1.97;;
46651;SDS011;32377;52.182;5.398;2023-04-03T00:19:35;5.87;;;1.77;;
46651;SDS011;32377;52.182;5.398;2023-04-03T00:22:00;5.87;;;1.90;;
46651;SDS011;32377;52.182;5.398;2023-04-03T00:24:26;4.63;;;1.70;;
46651;SDS011;32377;52.182;5.398;2023-04-03T00:26:52;2.93;;;1.83;;
46651;SDS011;32377;52.182;5.398;2023-04-03T00:29:17;4.37;;;1.87;;
46651;SDS011;32377;52.182;5.398;2023-04-03T00:31:43;5.63;;;1.33;;
46651;SDS011;32377;52.182;5.398;2023-04-03T00:34:09;5.13;;;1.83;;
46651;SDS011;32377;52.182;5.398;2023-04-03T00:36:35;4.27;;;2.07;;
46651;SDS011;32377;52.182;5.398;2023-04-03T00:39:00;2.83;;;1.70;;
46651;SDS011;32377;52.182;5.398;2023-04-03T00:41:26;6.37;;;1.87;;
46651;SDS011;32377;52.182;5.398;2023-04-03T00:43:51;4.97;;;1.67;;
46651;SDS011;32377;52.182;5.398;2023-04-03T00:46:17;2.97;;;1.63;;
46651;SDS011;32377;52.182;5.398;2023-04-03T00:48:46;2.73;;;1.40;;
46651;SDS011;32377;52.182;5.398;2023-04-03T00:51:14;7.00;;;2.03;;
46651;SDS011;32377;52.182;5.398;2023-04-03T00:53:46;4.40;;;1.83;;
46651;SDS011;32377;52.182;5.398;2023-04-03T00:56:16;5.07;;;1.93;;
46651;SDS011;32377;52.182;5.398;2023-04-03T00:58:48;4.60;;;1.67;;
46651;SDS011;32377;52.182;5.398;2023-04-03T01:03:47;5.50;;;1.80;;
46651;SDS011;32377;52.182;5.398;2023-04-03T01:06:13;9.10;;;2.17;;
46651;SDS011;32377;52.182;5.398;2023-04-03T01:08:41;4.57;;;2.20;;
46651;SDS011;32377;52.182;5.398;2023-04-03T01:11:07;4.83;;;1.73;;
46651;SDS011;32377;52.182;5.398;2023-04-03T01:13:33;3.40;;;1.80;;
46651;SDS011;32377;52.182;5.398;2023-04-03T01:16:02;3.33;;;1.83;;
46651;SDS011;32377;52.182;5.398;2023-04-03T01:18:29;7.17;;;2.40;;
46651;SDS011;32377;52.182;5.398;2023-04-03T01:21:20;6.33;;;1.93;;
46651;SDS011;32377;52.182;5.398;2023-04-03T01:26:42;5.03;;;2.13;;
46651;SDS011;32377;52.182;5.398;2023-04-03T01:29:08;3.77;;;1.90;;
46651;SDS011;32377;52.182;5.398;2023-04-03T01:33:59;3.83;;;1.67;;
46651;SDS011;32377;52.182;5.398;2023-04-03T01:36:27;5.70;;;1.90;;
46651;SDS011;32377;52.182;5.398;2023-04-03T01:38:54;3.23;;;1.90;;
46651;SDS011;32377;52.182;5.398;2023-04-03T01:41:21;3.50;;;2.00;;
46651;SDS011;32377;52.182;5.398;2023-04-03T01:43:47;5.13;;;2.30;;
46651;SDS011;32377;52.182;5.398;2023-04-03T01:46:13;6.57;;;2.30;;
46651;SDS011;32377;52.182;5.398;2023-04-03T01:48:40;6.60;;;2.47;;
46651;SDS011;32377;52.182;5.398;2023-04-03T01:51:06;9.00;;;2.10;;
46651;SDS011;32377;52.182;5.398;2023-04-03T01:53:31;6.93;;;2.10;;
46651;SDS011;32377;52.182;5.398;2023-04-03T01:55:57;5.87;;;2.00;;
46651;SDS011;32377;52.182;5.398;2023-04-03T01:58:23;4.50;;;2.10;;
46651;SDS011;32377;52.182;5.398;2023-04-03T02:00:48;5.77;;;2.47;;
46651;SDS011;32377;52.182;5.398;2023-04-03T02:03:14;9.00;;;2.20;;
46651;SDS011;32377;52.182;5.398;2023-04-03T02:05:40;4.70;;;2.17;;
46651;SDS011;32377;52.182;5.398;2023-04-03T02:08:05;7.80;;;2.13;;
46651;SDS011;32377;52.182;5.398;2023-04-03T02:10:31;12.80;;;2.03;;
46651;SDS011;32377;52.182;5.398;2023-04-03T02:12:57;6.77;;;2.47;;
46651;SDS011;32377;52.182;5.398;2023-04-03T02:15:23;6.13;;;2.53;;
46651;SDS011;32377;52.182;5.398;2023-04-03T02:17:48;4.97;;;1.90;;
46651;SDS011;32377;52.182;5.398;2023-04-03T02:20:14;6.77;;;2.63;;
46651;SDS011;32377;52.182;5.398;2023-04-03T02:22:40;5.37;;;2.33;;
46651;SDS011;32377;52.182;5.398;2023-04-03T02:25:06;6.27;;;2.30;;
46651;SDS011;32377;52.182;5.398;2023-04-03T02:27:31;8.90;;;2.60;;
46651;SDS011;32377;52.182;5.398;2023-04-03T02:29:57;5.13;;;2.30;;
46651;SDS011;32377;52.182;5.398;2023-04-03T02:32:23;9.40;;;2.40;;
46651;SDS011;32377;52.182;5.398;2023-04-03T02:34:48;5.20;;;2.30;;
46651;SDS011;32377;52.182;5.398;2023-04-03T02:37:14;6.43;;;2.33;;
46651;SDS011;32377;52.182;5.398;2023-04-03T02:39:40;5.93;;;2.20;;
46651;SDS011;32377;52.182;5.398;2023-04-03T02:42:06;7.33;;;2.33;;
46651;SDS011;32377;52.182;5.398;2023-04-03T02:44:32;6.33;;;2.27;;
46651;SDS011;32377;52.182;5.398;2023-04-03T02:46:57;5.27;;;2.17;;
46651;SDS011;32377;52.182;5.398;2023-04-03T02:49:23;11.07;;;3.30;;
46651;SDS011;32377;52.182;5.398;2023-04-03T02:51:49;7.87;;;2.30;;
46651;SDS011;32377;52.182;5.398;2023-04-03T02:54:16;7.33;;;2.93;;
46651;SDS011;32377;52.182;5.398;2023-04-03T02:56:41;4.37;;;2.00;;
46651;SDS011;32377;52.182;5.398;2023-04-03T02:59:07;6.17;;;2.80;;
46651;SDS011;32377;52.182;5.398;2023-04-03T03:01:32;10.80;;;2.53;;
46651;SDS011;32377;52.182;5.398;2023-04-03T03:03:59;9.50;;;2.57;;
46651;SDS011;32377;52.182;5.398;2023-04-03T03:06:25;4.97;;;2.20;;
46651;SDS011;32377;52.182;5.398;2023-04-03T03:08:51;7.43;;;2.70;;
46651;SDS011;32377;52.182;5.398;2023-04-03T03:11:17;3.67;;;2.17;;
46651;SDS011;32377;52.182;5.398;2023-04-03T03:13:43;6.47;;;2.40;;
46651;SDS011;32377;52.182;5.398;2023-04-03T03:16:09;7.07;;;2.63;;
46651;SDS011;32377;52.182;5.398;2023-04-03T03:18:34;7.33;;;2.50;;
46651;SDS011;32377;52.182;5.398;2023-04-03T03:21:01;8.00;;;2.73;;
46651;SDS011;32377;52.182;5.398;2023-04-03T03:23:28;11.37;;;3.10;;
46651;SDS011;32377;52.182;5.398;2023-04-03T03:25:57;7.60;;;2.80;;
46651;SDS011;32377;52.182;5.398;2023-04-03T03:28:25;7.13;;;3.17;;
46651;SDS011;32377;52.182;5.398;2023-04-03T03:30:51;5.43;;;2.50;;
46651;SDS011;32377;52.182;5.398;2023-04-03T03:33:16;8.40;;;2.60;;
46651;SDS011;32377;52.182;5.398;2023-04-03T03:35:43;8.27;;;3.43;;
46651;SDS011;32377;52.182;5.398;2023-04-03T03:38:09;7.37;;;2.77;;
46651;SDS011;32377;52.182;5.398;2023-04-03T03:40:35;9.03;;;2.47;;
46651;SDS011;32377;52.182;5.398;2023-04-03T03:43:00;8.30;;;3.13;;
46651;SDS011;32377;52.182;5.398;2023-04-03T03:45:26;8.77;;;2.53;;
46651;SDS011;32377;52.182;5.398;2023-04-03T03:47:52;6.33;;;2.53;;
46651;SDS011;32377;52.182;5.398;2023-04-03T03:50:17;7.03;;;2.73;;
46651;SDS011;32377;52.182;5.398;2023-04-03T03:52:43;9.07;;;2.77;;
46651;SDS011;32377;52.182;5.398;2023-04-03T03:55:09;8.50;;;2.93;;
46651;SDS011;32377;52.182;5.398;2023-04-03T03:59:15;9.17;;;3.20;;
46651;SDS011;32377;52.182;5.398;2023-04-03T04:01:41;6.30;;;3.00;;
46651;SDS011;32377;52.182;5.398;2023-04-03T04:04:07;17.87;;;3.20;;
46651;SDS011;32377;52.182;5.398;2023-04-03T04:06:32;6.83;;;2.87;;
46651;SDS011;32377;52.182;5.398;2023-04-03T04:08:58;6.83;;;2.80;;
46651;SDS011;32377;52.182;5.398;2023-04-03T04:11:23;9.73;;;2.70;;
46651;SDS011;32377;52.182;5.398;2023-04-03T04:13:49;6.80;;;3.03;;
46651;SDS011;32377;52.182;5.398;2023-04-03T04:16:15;6.50;;;3.57;;
46651;SDS011;32377;52.182;5.398;2023-04-03T04:18:40;6.80;;;2.70;;
46651;SDS011;32377;52.182;5.398;2023-04-03T04:21:06;10.10;;;3.17;;
46651;SDS011;32377;52.182;5.398;2023-04-03T04:23:32;9.23;;;3.17;;
46651;SDS011;32377;52.182;5.398;2023-04-03T04:25:57;8.30;;;3.00;;
46651;SDS011;32377;52.182;5.398;2023-04-03T04:28:23;7.50;;;2.90;;
46651;SDS011;32377;52.182;5.398;2023-04-03T04:30:48;9.20;;;3.50;;
46651;SDS011;32377;52.182;5.398;2023-04-03T04:33:14;9.23;;;3.30;;
46651;SDS011;32377;52.182;5.398;2023-04-03T04:35:41;10.40;;;3.00;;
46651;SDS011;32377;52.182;5.398;2023-04-03T04:38:07;8.80;;;3.30;;
46651;SDS011;32377;52.182;5.398;2023-04-03T04:40:33;9.67;;;3.20;;
46651;SDS011;32377;52.182;5.398;2023-04-03T04:42:59;8.73;;;3.30;;
46651;SDS011;32377;52.182;5.398;2023-04-03T04:45:25;7.63;;;2.73;;
46651;SDS011;32377;52.182;5.398;2023-04-03T04:47:50;6.30;;;3.60;;
46651;SDS011;32377;52.182;5.398;2023-04-03T04:50:17;10.67;;;3.17;;
46651;SDS011;32377;52.182;5.398;2023-04-03T04:52:43;7.77;;;3.43;;
46651;SDS011;32377;52.182;5.398;2023-04-03T04:55:09;9.33;;;3.33;;
46651;SDS011;32377;52.182;5.398;2023-04-03T04:57:34;9.43;;;3.47;;
46651;SDS011;32377;52.182;5.398;2023-04-03T05:00:00;9.80;;;3.00;;
46651;SDS011;32377;52.182;5.398;2023-04-03T05:02:26;7.87;;;3.10;;
46651;SDS011;32377;52.182;5.398;2023-04-03T05:04:51;8.87;;;3.13;;
46651;SDS011;32377;52.182;5.398;2023-04-03T05:07:17;9.27;;;2.63;;
46651;SDS011;32377;52.182;5.398;2023-04-03T05:09:43;9.00;;;3.00;;
46651;SDS011;32377;52.182;5.398;2023-04-03T05:12:08;13.37;;;4.77;;
46651;SDS011;32377;52.182;5.398;2023-04-03T05:14:34;8.80;;;3.67;;
46651;SDS011;32377;52.182;5.398;2023-04-03T05:17:00;12.07;;;3.10;;
46651;SDS011;32377;52.182;5.398;2023-04-03T05:19:25;5.93;;;2.67;;
46651;SDS011;32377;52.182;5.398;2023-04-03T05:21:51;10.43;;;3.40;;
46651;SDS011;32377;52.182;5.398;2023-04-03T05:24:17;8.30;;;3.07;;
46651;SDS011;32377;52.182;5.398;2023-04-03T05:26:43;9.83;;;3.60;;
46651;SDS011;32377;52.182;5.398;2023-04-03T05:29:09;11.07;;;3.20;;
46651;SDS011;32377;52.182;5.398;2023-04-03T05:31:35;9.77;;;3.17;;
46651;SDS011;32377;52.182;5.398;2023-04-03T05:34:01;7.60;;;3.33;;
46651;SDS011;32377;52.182;5.398;2023-04-03T05:36:27;10.63;;;3.23;;
46651;SDS011;32377;52.182;5.398;2023-04-03T05:38:53;8.53;;;3.37;;
46651;SDS011;32377;52.182;5.398;2023-04-03T05:41:21;6.83;;;2.90;;
46651;SDS011;32377;52.182;5.398;2023-04-03T05:43:46;8.07;;;3.03;;
46651;SDS011;32377;52.182;5.398;2023-04-03T05:46:13;7.33;;;2.70;;
46651;SDS011;32377;52.182;5.398;2023-04-03T05:48:40;7.27;;;3.07;;
46651;SDS011;32377;52.182;5.398;2023-04-03T05:51:06;11.00;;;3.67;;
46651;SDS011;32377;52.182;5.398;2023-04-03T05:53:36;10.00;;;3.50;;
46651;SDS011;32377;52.182;5.398;2023-04-03T05:56:02;9.03;;;3.07;;
46651;SDS011;32377;52.182;5.398;2023-04-03T05:58:28;5.83;;;3.40;;
46651;SDS011;32377;52.182;5.398;2023-04-03T06:00:54;7.73;;;2.80;;
46651;SDS011;32377;52.182;5.398;2023-04-03T06:03:20;12.43;;;3.20;;
46651;SDS011;32377;52.182;5.398;2023-04-03T06:05:46;6.43;;;2.93;;
46651;SDS011;32377;52.182;5.398;2023-04-03T06:08:11;9.40;;;2.90;;
46651;SDS011;32377;52.182;5.398;2023-04-03T06:10:38;10.83;;;3.27;;
46651;SDS011;32377;52.182;5.398;2023-04-03T06:13:04;8.00;;;3.00;;
46651;SDS011;32377;52.182;5.398;2023-04-03T06:15:29;9.37;;;2.70;;
46651;SDS011;32377;52.182;5.398;2023-04-03T06:17:55;9.83;;;3.60;;
46651;SDS011;32377;52.182;5.398;2023-04-03T06:20:21;10.33;;;2.90;;
46651;SDS011;32377;52.182;5.398;2023-04-03T06:22:47;6.97;;;2.70;;
46651;SDS011;32377;52.182;5.398;2023-04-03T06:25:13;11.03;;;3.03;;
46651;SDS011;32377;52.182;5.398;2023-04-03T06:27:39;6.83;;;2.77;;
46651;SDS011;32377;52.182;5.398;2023-04-03T06:30:06;7.13;;;3.07;;
46651;SDS011;32377;52.182;5.398;2023-04-03T06:32:32;9.40;;;2.97;;
46651;SDS011;32377;52.182;5.398;2023-04-03T06:34:57;9.50;;;2.80;;
46651;SDS011;32377;52.182;5.398;2023-04-03T06:37:24;8.07;;;2.90;;
46651;SDS011;32377;52.182;5.398;2023-04-03T06:39:53;5.93;;;3.10;;
46651;SDS011;32377;52.182;5.398;2023-04-03T06:42:20;10.50;;;3.20;;
46651;SDS011;32377;52.182;5.398;2023-04-03T06:44:46;12.37;;;3.13;;
46651;SDS011;32377;52.182;5.398;2023-04-03T06:47:15;11.33;;;3.00;;
46651;SDS011;32377;52.182;5.398;2023-04-03T06:49:41;9.03;;;3.57;;
46651;SDS011;32377;52.182;5.398;2023-04-03T06:52:08;6.27;;;2.50;;
46651;SDS011;32377;52.182;5.398;2023-04-03T06:54:34;8.67;;;2.63;;
46651;SDS011;32377;52.182;5.398;2023-04-03T06:57:00;8.23;;;2.60;;
46651;SDS011;32377;52.182;5.398;2023-04-03T06:59:26;7.73;;;2.80;;
46651;SDS011;32377;52.182;5.398;2023-04-03T07:01:52;7.00;;;2.57;;
46651;SDS011;32377;52.182;5.398;2023-04-03T07:04:18;10.03;;;2.63;;
46651;SDS011;32377;52.182;5.398;2023-04-03T07:06:45;9.47;;;2.33;;
46651;SDS011;32377;52.182;5.398;2023-04-03T07:09:11;9.13;;;2.67;;
46651;SDS011;32377;52.182;5.398;2023-04-03T07:11:38;9.13;;;2.87;;
46651;SDS011;32377;52.182;5.398;2023-04-03T07:14:05;6.93;;;2.70;;
46651;SDS011;32377;52.182;5.398;2023-04-03T07:16:32;4.10;;;2.30;;
46651;SDS011;32377;52.182;5.398;2023-04-03T07:18:59;7.83;;;2.77;;
46651;SDS011;32377;52.182;5.398;2023-04-03T07:21:25;7.57;;;2.30;;
46651;SDS011;32377;52.182;5.398;2023-04-03T07:23:51;6.23;;;2.67;;
46651;SDS011;32377;52.182;5.398;2023-04-03T07:26:17;6.03;;;2.53;;
46651;SDS011;32377;52.182;5.398;2023-04-03T07:28:42;9.10;;;2.70;;
46651;SDS011;32377;52.182;5.398;2023-04-03T07:31:12;8.63;;;2.87;;
46651;SDS011;32377;52.182;5.398;2023-04-03T07:33:38;9.23;;;2.53;;
46651;SDS011;32377;52.182;5.398;2023-04-03T07:36:05;7.57;;;2.67;;
46651;SDS011;32377;52.182;5.398;2023-04-03T07:38:32;6.40;;;2.20;;
46651;SDS011;32377;52.182;5.398;2023-04-03T07:40:58;7.90;;;2.00;;
46651;SDS011;32377;52.182;5.398;2023-04-03T07:43:24;3.87;;;2.30;;
46651;SDS011;32377;52.182;5.398;2023-04-03T07:45:51;7.30;;;2.00;;
46651;SDS011;32377;52.182;5.398;2023-04-03T07:48:19;6.73;;;2.30;;
46651;SDS011;32377;52.182;5.398;2023-04-03T07:50:46;7.40;;;1.80;;
46651;SDS011;32377;52.182;5.398;2023-04-03T07:53:13;7.63;;;2.37;;
46651;SDS011;32377;52.182;5.398;2023-04-03T07:55:39;5.73;;;2.40;;
46651;SDS011;32377;52.182;5.398;2023-04-03T07:58:11;6.20;;;1.90;;
46651;SDS011;32377;52.182;5.398;2023-04-03T08:00:39;6.43;;;2.70;;
46651;SDS011;32377;52.182;5.398;2023-04-03T08:03:05;8.60;;;2.33;;
46651;SDS011;32377;52.182;5.398;2023-04-03T08:05:36;5.13;;;1.90;;
46651;SDS011;32377;52.182;5.398;2023-04-03T08:08:02;4.77;;;1.87;;
46651;SDS011;32377;52.182;5.398;2023-04-03T08:10:32;8.40;;;2.10;;
46651;SDS011;32377;52.182;5.398;2023-04-03T08:12:58;5.73;;;2.10;;
46651;SDS011;32377;52.182;5.398;2023-04-03T08:15:25;7.27;;;2.67;;
46651;SDS011;32377;52.182;5.398;2023-04-03T08:17:50;6.07;;;2.65;;
46651;SDS011;32377;52.182;5.398;2023-04-03T08:20:16;9.40;;;2.37;;
46651;SDS011;32377;52.182;5.398;2023-04-03T08:22:42;7.63;;;1.93;;
46651;SDS011;32377;52.182;5.398;2023-04-03T08:25:08;7.93;;;2.35;;
46651;SDS011;32377;52.182;5.398;2023-04-03T08:27:34;6.72;;;1.88;;
46651;SDS011;32377;52.182;5.398;2023-04-03T08:30:00;5.38;;;1.88;;
46651;SDS011;32377;52.182;5.398;2023-04-03T08:32:26;4.78;;;2.10;;
46651;SDS011;32377;52.182;5.398;2023-04-03T08:34:52;5.70;;;2.38;;
46651;SDS011;32377;52.182;5.398;2023-04-03T08:37:18;3.53;;;1.60;;
46651;SDS011;32377;52.182;5.398;2023-04-03T08:39:44;7.00;;;1.73;;
46651;SDS011;32377;52.182;5.398;2023-04-03T08:45:20;2.67;;;1.40;;
46651;SDS011;32377;52.182;5.398;2023-04-03T08:48:00;7.20;;;1.48;;
46651;SDS011;32377;52.182;5.398;2023-04-03T08:50:37;2.83;;;1.30;;
46651;SDS011;32377;52.182;5.398;2023-04-03T08:53:17;4.57;;;1.38;;
46651;SDS011;32377;52.182;5.398;2023-04-03T08:55:47;5.72;;;1.40;;
46651;SDS011;32377;52.182;5.398;2023-04-03T09:00:56;4.43;;;1.30;;
46651;SDS011;32377;52.182;5.398;2023-04-03T09:03:43;3.17;;;1.02;;
46651;SDS011;32377;52.182;5.398;2023-04-03T09:06:13;3.17;;;0.90;;
46651;SDS011;32377;52.182;5.398;2023-04-03T09:08:43;2.78;;;1.05;;
46651;SDS011;32377;52.182;5.398;2023-04-03T09:15:07;3.35;;;1.00;;
46651;SDS011;32377;52.182;5.398;2023-04-03T09:20:13;6.20;;;0.80;;
46651;SDS011;32377;52.182;5.398;2023-04-03T09:22:46;3.67;;;0.90;;
46651;SDS011;32377;52.182;5.398;2023-04-03T09:27:41;2.00;;;0.80;;
46651;SDS011;32377;52.182;5.398;2023-04-03T09:30:11;2.17;;;0.73;;
46651;SDS011;32377;52.182;5.398;2023-04-03T09:32:41;1.40;;;0.57;;
46651;SDS011;32377;52.182;5.398;2023-04-03T09:37:52;3.63;;;0.77;;
46651;SDS011;32377;52.182;5.398;2023-04-03T09:42:51;1.20;;;0.57;;
46651;SDS011;32377;52.182;5.398;2023-04-03T09:45:36;0.60;;;0.60;;
46651;SDS011;32377;52.182;5.398;2023-04-03T09:53:30;1.85;;;0.70;;
46651;SDS011;32377;52.182;5.398;2023-04-03T09:59:14;1.33;;;0.60;;
46651;SDS011;32377;52.182;5.398;2023-04-03T10:01:42;1.02;;;0.70;;
46651;SDS011;32377;52.182;5.398;2023-04-03T10:04:22;1.60;;;0.55;;
46651;SDS011;32377;52.182;5.398;2023-04-03T10:06:49;2.55;;;0.93;;
46651;SDS011;32377;52.182;5.398;2023-04-03T10:09:27;2.08;;;0.50;;
46651;SDS011;32377;52.182;5.398;2023-04-03T10:12:02;2.97;;;0.98;;
46651;SDS011;32377;52.182;5.398;2023-04-03T10:14:30;2.42;;;0.90;;
46651;SDS011;32377;52.182;5.398;2023-04-03T10:19:58;2.67;;;0.80;;
46651;SDS011;32377;52.182;5.398;2023-04-03T10:41:47;2.83;;;0.75;;
46651;SDS011;32377;52.182;5.398;2023-04-03T10:46:58;0.88;;;0.50;;
46651;SDS011;32377;52.182;5.398;2023-04-03T10:49:47;0.95;;;0.50;;
46651;SDS011;32377;52.182;5.398;2023-04-03T10:52:48;2.15;;;0.75;;
46651;SDS011;32377;52.182;5.398;2023-04-03T10:55:48;1.55;;;0.90;;
46651;SDS011;32377;52.182;5.398;2023-04-03T10:58:20;1.00;;;0.45;;
46651;SDS011;32377;52.182;5.398;2023-04-03T11:00:57;1.40;;;0.82;;
46651;SDS011;32377;52.182;5.398;2023-04-03T11:03:31;1.20;;;0.70;;
46651;SDS011;32377;52.182;5.398;2023-04-03T11:06:01;2.28;;;0.70;;
46651;SDS011;32377;52.182;5.398;2023-04-03T11:11:05;4.35;;;1.70;;
46651;SDS011;32377;52.182;5.398;2023-04-03T11:16:24;1.73;;;0.80;;
46651;SDS011;32377;52.182;5.398;2023-04-03T11:18:53;3.63;;;1.38;;
46651;SDS011;32377;52.182;5.398;2023-04-03T11:21:27;1.70;;;0.80;;
46651;SDS011;32377;52.182;5.398;2023-04-03T11:24:05;1.00;;;0.70;;
46651;SDS011;32377;52.182;5.398;2023-04-03T11:26:48;3.17;;;0.90;;
46651;SDS011;32377;52.182;5.398;2023-04-03T11:29:18;4.47;;;0.80;;
46651;SDS011;32377;52.182;5.398;2023-04-03T11:31:57;2.55;;;0.70;;
46651;SDS011;32377;52.182;5.398;2023-04-03T11:37:11;1.52;;;0.60;;
46651;SDS011;32377;52.182;5.398;2023-04-03T11:39:38;1.95;;;0.70;;
46651;SDS011;32377;52.182;5.398;2023-04-03T11:53:25;0.82;;;0.60;;
46651;SDS011;32377;52.182;5.398;2023-04-03T12:04:14;3.72;;;0.77;;
46651;SDS011;32377;52.182;5.398;2023-04-03T12:12:24;3.97;;;0.90;;
46651;SDS011;32377;52.182;5.398;2023-04-03T12:14:55;4.25;;;0.90;;
46651;SDS011;32377;52.182;5.398;2023-04-03T12:17:43;1.95;;;0.88;;
46651;SDS011;32377;52.182;5.398;2023-04-03T12:23:26;5.40;;;1.20;;
46651;SDS011;32377;52.182;5.398;2023-04-03T12:25:59;2.38;;;0.60;;
46651;SDS011;32377;52.182;5.398;2023-04-03T12:28:29;3.22;;;0.93;;
46651;SDS011;32377;52.182;5.398;2023-04-03T12:30:54;2.50;;;0.88;;
46651;SDS011;32377;52.182;5.398;2023-04-03T12:33:24;3.15;;;1.23;;
46651;SDS011;32377;52.182;5.398;2023-04-03T12:36:18;4.05;;;0.98;;
46651;SDS011;32377;52.182;5.398;2023-04-03T12:41:54;2.60;;;1.13;;
46651;SDS011;32377;52.182;5.398;2023-04-03T12:44:25;1.40;;;0.80;;
46651;SDS011;32377;52.182;5.398;2023-04-03T12:47:16;2.00;;;0.90;;
46651;SDS011;32377;52.182;5.398;2023-04-03T12:49:53;2.28;;;1.08;;
46651;SDS011;32377;52.182;5.398;2023-04-03T12:52:31;2.58;;;1.30;;
46651;SDS011;32377;52.182;5.398;2023-04-03T12:55:07;1.17;;;0.70;;
46651;SDS011;32377;52.182;5.398;2023-04-03T12:57:40;3.17;;;1.15;;
46651;SDS011;32377;52.182;5.398;2023-04-03T13:00:18;4.53;;;1.00;;
46651;SDS011;32377;52.182;5.398;2023-04-03T13:02:46;3.05;;;1.10;;
46651;SDS011;32377;52.182;5.398;2023-04-03T13:05:16;2.20;;;0.80;;
46651;SDS011;32377;52.182;5.398;2023-04-03T13:07:43;5.32;;;1.42;;
46651;SDS011;32377;52.182;5.398;2023-04-03T13:10:23;2.33;;;0.90;;
46651;SDS011;32377;52.182;5.398;2023-04-03T13:12:53;4.47;;;0.85;;
46651;SDS011;32377;52.182;5.398;2023-04-03T13:15:26;2.78;;;1.00;;
46651;SDS011;32377;52.182;5.398;2023-04-03T13:17:54;6.32;;;0.90;;
46651;SDS011;32377;52.182;5.398;2023-04-03T13:20:28;1.38;;;1.10;;
46651;SDS011;32377;52.182;5.398;2023-04-03T13:23:01;4.80;;;1.52;;
46651;SDS011;32377;52.182;5.398;2023-04-03T13:25:31;1.88;;;1.17;;
46651;SDS011;32377;52.182;5.398;2023-04-03T13:28:00;2.72;;;1.20;;
46651;SDS011;32377;52.182;5.398;2023-04-03T13:30:33;3.80;;;1.23;;
46651;SDS011;32377;52.182;5.398;2023-04-03T13:33:02;4.43;;;1.15;;
46651;SDS011;32377;52.182;5.398;2023-04-03T13:35:35;2.95;;;1.20;;
46651;SDS011;32377;52.182;5.398;2023-04-03T13:38:04;2.33;;;1.02;;
46651;SDS011;32377;52.182;5.398;2023-04-03T13:43:36;4.70;;;1.25;;
46651;SDS011;32377;52.182;5.398;2023-04-03T13:46:04;5.63;;;1.80;;
46651;SDS011;32377;52.182;5.398;2023-04-03T13:51:41;2.88;;;1.10;;
46651;SDS011;32377;52.182;5.398;2023-04-03T13:54:16;2.67;;;1.08;;
46651;SDS011;32377;52.182;5.398;2023-04-03T13:56:45;5.70;;;1.27;;
46651;SDS011;32377;52.182;5.398;2023-04-03T14:04:13;4.28;;;1.15;;
46651;SDS011;32377;52.182;5.398;2023-04-03T14:06:44;2.70;;;1.13;;
46651;SDS011;32377;52.182;5.398;2023-04-03T14:09:11;2.88;;;1.30;;
46651;SDS011;32377;52.182;5.398;2023-04-03T14:11:37;2.85;;;1.35;;
46651;SDS011;32377;52.182;5.398;2023-04-03T14:14:18;6.15;;;1.58;;
46651;SDS011;32377;52.182;5.398;2023-04-03T14:16:48;3.17;;;1.52;;
46651;SDS011;32377;52.182;5.398;2023-04-03T14:19:27;3.50;;;1.75;;
46651;SDS011;32377;52.182;5.398;2023-04-03T14:21:54;4.22;;;1.33;;
46651;SDS011;32377;52.182;5.398;2023-04-03T14:24:22;7.30;;;1.27;;
46651;SDS011;32377;52.182;5.398;2023-04-03T14:26:49;3.03;;;1.20;;
46651;SDS011;32377;52.182;5.398;2023-04-03T14:29:16;5.00;;;1.55;;
46651;SDS011;32377;52.182;5.398;2023-04-03T14:31:43;4.32;;;1.40;;
46651;SDS011;32377;52.182;5.398;2023-04-03T14:34:13;2.72;;;1.10;;
46651;SDS011;32377;52.182;5.398;2023-04-03T14:36:40;3.55;;;1.48;;
46651;SDS011;32377;52.182;5.398;2023-04-03T14:39:08;3.90;;;1.70;;
46651;SDS011;32377;52.182;5.398;2023-04-03T14:41:41;4.57;;;1.25;;
46651;SDS011;32377;52.182;5.398;2023-04-03T14:44:07;3.05;;;1.10;;
46651;SDS011;32377;52.182;5.398;2023-04-03T14:46:38;2.70;;;1.30;;
46651;SDS011;32377;52.182;5.398;2023-04-03T14:49:15;5.40;;;1.33;;
46651;SDS011;32377;52.182;5.398;2023-04-03T14:51:43;4.60;;;1.40;;
46651;SDS011;32377;52.182;5.398;2023-04-03T14:54:14;6.80;;;1.55;;
46651;SDS011;32377;52.182;5.398;2023-04-03T14:56:41;3.30;;;1.35;;
46651;SDS011;32377;52.182;5.398;2023-04-03T14:59:09;3.60;;;1.52;;
46651;SDS011;32377;52.182;5.398;2023-04-03T15:01:36;3.75;;;1.30;;
46651;SDS011;32377;52.182;5.398;2023-04-03T15:04:05;7.05;;;1.67;;
46651;SDS011;32377;52.182;5.398;2023-04-03T15:06:38;3.65;;;1.60;;
46651;SDS011;32377;52.182;5.398;2023-04-03T15:09:04;6.75;;;1.60;;
46651;SDS011;32377;52.182;5.398;2023-04-03T15:11:31;4.60;;;1.75;;
46651;SDS011;32377;52.182;5.398;2023-04-03T15:13:56;2.15;;;1.40;;
46651;SDS011;32377;52.182;5.398;2023-04-03T15:16:22;11.82;;;6.35;;
46651;SDS011;32377;52.182;5.398;2023-04-03T15:18:48;2.75;;;1.75;;
46651;SDS011;32377;52.182;5.398;2023-04-03T15:21:14;3.17;;;1.38;;
46651;SDS011;32377;52.182;5.398;2023-04-03T15:23:40;3.95;;;2.20;;
46651;SDS011;32377;52.182;5.398;2023-04-03T15:26:06;4.25;;;1.73;;
46651;SDS011;32377;52.182;5.398;2023-04-03T15:28:33;6.18;;;2.03;;
46651;SDS011;32377;52.182;5.398;2023-04-03T15:31:01;4.80;;;2.05;;
46651;SDS011;32377;52.182;5.398;2023-04-03T15:33:31;5.93;;;2.58;;
46651;SDS011;32377;52.182;5.398;2023-04-03T15:35:58;3.67;;;2.08;;
46651;SDS011;32377;52.182;5.398;2023-04-03T15:38:23;5.75;;;1.75;;
46651;SDS011;32377;52.182;5.398;2023-04-03T15:40:50;6.05;;;2.80;;
46651;SDS011;32377;52.182;5.398;2023-04-03T15:43:16;6.63;;;2.28;;
46651;SDS011;32377;52.182;5.398;2023-04-03T15:45:42;5.97;;;2.42;;
46651;SDS011;32377;52.182;5.398;2023-04-03T15:48:09;11.00;;;2.35;;
46651;SDS011;32377;52.182;5.398;2023-04-03T15:50:35;3.65;;;1.85;;
46651;SDS011;32377;52.182;5.398;2023-04-03T15:53:01;3.28;;;1.60;;
46651;SDS011;32377;52.182;5.398;2023-04-03T15:55:29;4.35;;;1.75;;
46651;SDS011;32377;52.182;5.398;2023-04-03T15:59:13;10.85;;;2.10;;
46651;SDS011;32377;52.182;5.398;2023-04-03T16:01:38;4.97;;;1.85;;
46651;SDS011;32377;52.182;5.398;2023-04-03T16:04:06;6.57;;;1.88;;
46651;SDS011;32377;52.182;5.398;2023-04-03T16:06:33;8.25;;;1.90;;
46651;SDS011;32377;52.182;5.398;2023-04-03T16:08:59;3.15;;;1.65;;
46651;SDS011;32377;52.182;5.398;2023-04-03T16:11:25;6.50;;;4.78;;
46651;SDS011;32377;52.182;5.398;2023-04-03T16:13:52;4.25;;;1.73;;
46651;SDS011;32377;52.182;5.398;2023-04-03T16:16:18;5.22;;;1.73;;
46651;SDS011;32377;52.182;5.398;2023-04-03T16:18:44;4.30;;;1.90;;
46651;SDS011;32377;52.182;5.398;2023-04-03T16:21:11;4.78;;;2.08;;
46651;SDS011;32377;52.182;5.398;2023-04-03T16:23:39;4.85;;;1.70;;
46651;SDS011;32377;52.182;5.398;2023-04-03T16:26:05;4.38;;;1.33;;
46651;SDS011;32377;52.182;5.398;2023-04-03T16:28:31;3.05;;;1.50;;
46651;SDS011;32377;52.182;5.398;2023-04-03T16:30:57;6.82;;;2.30;;
46651;SDS011;32377;52.182;5.398;2023-04-03T16:33:23;5.93;;;1.52;;
46651;SDS011;32377;52.182;5.398;2023-04-03T16:35:49;2.13;;;1.50;;
46651;SDS011;32377;52.182;5.398;2023-04-03T16:38:15;5.30;;;1.63;;
46651;SDS011;32377;52.182;5.398;2023-04-03T16:40:43;3.80;;;1.63;;
46651;SDS011;32377;52.182;5.398;2023-04-03T16:43:09;3.92;;;1.23;;
46651;SDS011;32377;52.182;5.398;2023-04-03T16:45:35;4.82;;;1.80;;